sensor_id;sensor_type;location;lat;lon;timestamp;P1;durP1;ratioP1;P2;durP2;ratioP2
49548;SDS011;35450;44.518;7.466;2022-07-06T00:01:13;5.85;;;2.03;;
49548;SDS011;35450;44.518;7.466;2022-07-06T00:04:17;5.75;;;2.53;;
49548;SDS011;35450;44.518;7.466;2022-07-06T00:07:22;5.35;;;1.80;;
49548;SDS011;35450;44.518;7.466;2022-07-06T00:10:27;6.13;;;1.80;;
49548;SDS011;35450;44.518;7.466;2022-07-06T00:13:31;5.95;;;2.35;;
49548;SDS011;35450;44.518;7.466;2022-07-06T00:16:35;6.82;;;1.80;;
49548;SDS011;35450;44.518;7.466;2022-07-06T00:19:39;4.65;;;1.70;;
49548;SDS011;35450;44.518;7.466;2022-07-06T00:22:43;7.72;;;1.98;;
49548;SDS011;35450;44.518;7.466;2022-07-06T00:25:47;6.78;;;2.40;;
49548;SDS011;35450;44.518;7.466;2022-07-06T00:28:51;6.28;;;1.75;;
49548;SDS011;35450;44.518;7.466;2022-07-06T00:31:55;5.40;;;1.88;;
49548;SDS011;35450;44.518;7.466;2022-07-06T00:34:59;4.75;;;1.85;;
49548;SDS011;35450;44.518;7.466;2022-07-06T00:38:03;5.93;;;1.70;;
49548;SDS011;35450;44.518;7.466;2022-07-06T00:41:07;3.58;;;1.92;;
49548;SDS011;35450;44.518;7.466;2022-07-06T00:44:11;7.05;;;1.90;;
49548;SDS011;35450;44.518;7.466;2022-07-06T00:47:15;4.70;;;1.90;;
49548;SDS011;35450;44.518;7.466;2022-07-06T00:50:19;3.80;;;1.90;;
49548;SDS011;35450;44.518;7.466;2022-07-06T00:53:25;6.00;;;2.05;;
49548;SDS011;35450;44.518;7.466;2022-07-06T00:56:29;6.15;;;2.33;;
49548;SDS011;35450;44.518;7.466;2022-07-06T00:59:35;4.35;;;1.92;;
49548;SDS011;35450;44.518;7.466;2022-07-06T01:02:39;5.90;;;2.95;;
49548;SDS011;35450;44.518;7.466;2022-07-06T01:05:44;6.18;;;2.00;;
49548;SDS011;35450;44.518;7.466;2022-07-06T01:08:48;6.50;;;2.35;;
49548;SDS011;35450;44.518;7.466;2022-07-06T01:11:52;6.43;;;1.90;;
49548;SDS011;35450;44.518;7.466;2022-07-06T01:14:57;12.15;;;2.50;;
49548;SDS011;35450;44.518;7.466;2022-07-06T01:18:02;9.30;;;2.00;;
49548;SDS011;35450;44.518;7.466;2022-07-06T01:21:09;5.75;;;2.38;;
49548;SDS011;35450;44.518;7.466;2022-07-06T01:24:15;6.32;;;1.90;;
49548;SDS011;35450;44.518;7.466;2022-07-06T01:27:19;5.32;;;1.83;;
49548;SDS011;35450;44.518;7.466;2022-07-06T01:30:23;2.78;;;1.50;;
49548;SDS011;35450;44.518;7.466;2022-07-06T01:33:27;7.07;;;1.67;;
49548;SDS011;35450;44.518;7.466;2022-07-06T01:36:31;8.07;;;2.03;;
49548;SDS011;35450;44.518;7.466;2022-07-06T01:39:35;5.22;;;1.90;;
49548;SDS011;35450;44.518;7.466;2022-07-06T01:42:42;7.65;;;1.67;;
49548;SDS011;35450;44.518;7.466;2022-07-06T01:45:46;2.55;;;1.27;;
49548;SDS011;35450;44.518;7.466;2022-07-06T01:48:51;5.50;;;1.70;;
49548;SDS011;35450;44.518;7.466;2022-07-06T01:51:55;4.28;;;1.70;;
49548;SDS011;35450;44.518;7.466;2022-07-06T01:55:00;4.82;;;1.58;;
49548;SDS011;35450;44.518;7.466;2022-07-06T01:58:06;5.57;;;2.03;;
49548;SDS011;35450;44.518;7.466;2022-07-06T02:01:11;9.27;;;2.30;;
49548;SDS011;35450;44.518;7.466;2022-07-06T02:04:19;9.68;;;2.30;;
49548;SDS011;35450;44.518;7.466;2022-07-06T02:07:23;3.58;;;1.70;;
49548;SDS011;35450;44.518;7.466;2022-07-06T02:10:27;9.05;;;2.05;;
49548;SDS011;35450;44.518;7.466;2022-07-06T02:13:31;6.57;;;1.58;;
49548;SDS011;35450;44.518;7.466;2022-07-06T02:16:37;4.72;;;1.70;;
49548;SDS011;35450;44.518;7.466;2022-07-06T02:19:41;4.45;;;1.40;;
49548;SDS011;35450;44.518;7.466;2022-07-06T02:22:45;9.32;;;1.58;;
49548;SDS011;35450;44.518;7.466;2022-07-06T02:25:51;4.63;;;1.85;;
49548;SDS011;35450;44.518;7.466;2022-07-06T02:28:55;9.57;;;1.85;;
49548;SDS011;35450;44.518;7.466;2022-07-06T02:32:00;6.03;;;1.63;;
49548;SDS011;35450;44.518;7.466;2022-07-06T02:35:04;5.95;;;1.48;;
49548;SDS011;35450;44.518;7.466;2022-07-06T02:38:08;4.40;;;1.70;;
49548;SDS011;35450;44.518;7.466;2022-07-06T02:41:14;4.65;;;1.45;;
49548;SDS011;35450;44.518;7.466;2022-07-06T02:44:18;4.25;;;1.35;;
49548;SDS011;35450;44.518;7.466;2022-07-06T02:47:22;2.45;;;1.38;;
49548;SDS011;35450;44.518;7.466;2022-07-06T02:50:26;4.65;;;1.27;;
49548;SDS011;35450;44.518;7.466;2022-07-06T02:53:31;5.68;;;1.30;;
49548;SDS011;35450;44.518;7.466;2022-07-06T02:56:36;5.13;;;1.20;;
49548;SDS011;35450;44.518;7.466;2022-07-06T02:59:41;6.75;;;1.45;;
49548;SDS011;35450;44.518;7.466;2022-07-06T03:02:45;2.55;;;1.10;;
49548;SDS011;35450;44.518;7.466;2022-07-06T03:05:49;2.90;;;1.13;;
49548;SDS011;35450;44.518;7.466;2022-07-06T03:08:56;2.35;;;1.20;;
49548;SDS011;35450;44.518;7.466;2022-07-06T03:12:00;2.97;;;1.20;;
49548;SDS011;35450;44.518;7.466;2022-07-06T03:15:07;4.28;;;1.13;;
49548;SDS011;35450;44.518;7.466;2022-07-06T03:18:14;3.35;;;1.20;;
49548;SDS011;35450;44.518;7.466;2022-07-06T03:21:18;3.33;;;1.17;;
49548;SDS011;35450;44.518;7.466;2022-07-06T03:24:23;7.82;;;1.25;;
49548;SDS011;35450;44.518;7.466;2022-07-06T03:27:27;7.13;;;1.40;;
49548;SDS011;35450;44.518;7.466;2022-07-06T03:30:31;7.78;;;1.55;;
49548;SDS011;35450;44.518;7.466;2022-07-06T03:33:36;10.00;;;1.48;;
49548;SDS011;35450;44.518;7.466;2022-07-06T03:36:41;2.97;;;1.33;;
49548;SDS011;35450;44.518;7.466;2022-07-06T03:39:45;4.00;;;1.10;;
49548;SDS011;35450;44.518;7.466;2022-07-06T03:42:49;2.83;;;1.17;;
49548;SDS011;35450;44.518;7.466;2022-07-06T03:45:53;6.80;;;1.50;;
49548;SDS011;35450;44.518;7.466;2022-07-06T03:48:58;5.25;;;1.30;;
49548;SDS011;35450;44.518;7.466;2022-07-06T03:52:02;5.70;;;1.80;;
49548;SDS011;35450;44.518;7.466;2022-07-06T03:55:13;5.07;;;0.88;;
49548;SDS011;35450;44.518;7.466;2022-07-06T03:58:23;5.90;;;1.48;;
49548;SDS011;35450;44.518;7.466;2022-07-06T04:01:27;5.70;;;1.23;;
49548;SDS011;35450;44.518;7.466;2022-07-06T04:04:34;1.48;;;0.95;;
49548;SDS011;35450;44.518;7.466;2022-07-06T04:07:39;1.70;;;0.80;;
49548;SDS011;35450;44.518;7.466;2022-07-06T04:10:44;4.18;;;1.30;;
49548;SDS011;35450;44.518;7.466;2022-07-06T04:13:48;3.40;;;1.02;;
49548;SDS011;35450;44.518;7.466;2022-07-06T04:16:51;2.97;;;1.02;;
49548;SDS011;35450;44.518;7.466;2022-07-06T04:19:57;5.65;;;0.90;;
49548;SDS011;35450;44.518;7.466;2022-07-06T04:23:00;6.15;;;1.20;;
49548;SDS011;35450;44.518;7.466;2022-07-06T04:26:04;7.18;;;1.02;;
49548;SDS011;35450;44.518;7.466;2022-07-06T04:29:10;5.30;;;1.58;;
49548;SDS011;35450;44.518;7.466;2022-07-06T04:32:15;4.47;;;1.20;;
49548;SDS011;35450;44.518;7.466;2022-07-06T04:35:19;4.68;;;1.13;;
49548;SDS011;35450;44.518;7.466;2022-07-06T04:38:25;3.95;;;1.27;;
49548;SDS011;35450;44.518;7.466;2022-07-06T04:41:31;2.50;;;1.00;;
49548;SDS011;35450;44.518;7.466;2022-07-06T04:44:35;5.10;;;1.15;;
49548;SDS011;35450;44.518;7.466;2022-07-06T04:47:39;2.53;;;1.10;;
49548;SDS011;35450;44.518;7.466;2022-07-06T04:50:43;4.28;;;1.10;;
49548;SDS011;35450;44.518;7.466;2022-07-06T04:53:53;7.45;;;1.02;;
49548;SDS011;35450;44.518;7.466;2022-07-06T04:56:58;2.38;;;1.20;;
49548;SDS011;35450;44.518;7.466;2022-07-06T05:00:03;4.25;;;1.10;;
49548;SDS011;35450;44.518;7.466;2022-07-06T05:03:08;7.13;;;1.27;;
49548;SDS011;35450;44.518;7.466;2022-07-06T05:06:12;5.32;;;1.10;;
49548;SDS011;35450;44.518;7.466;2022-07-06T05:09:17;5.07;;;1.15;;
49548;SDS011;35450;44.518;7.466;2022-07-06T05:12:22;3.72;;;1.73;;
49548;SDS011;35450;44.518;7.466;2022-07-06T05:15:27;6.35;;;1.25;;
49548;SDS011;35450;44.518;7.466;2022-07-06T05:18:31;5.00;;;1.30;;
49548;SDS011;35450;44.518;7.466;2022-07-06T05:21:37;9.35;;;1.98;;
49548;SDS011;35450;44.518;7.466;2022-07-06T05:24:43;5.85;;;1.23;;
49548;SDS011;35450;44.518;7.466;2022-07-06T05:27:47;4.63;;;1.60;;
49548;SDS011;35450;44.518;7.466;2022-07-06T05:30:52;6.20;;;2.20;;
49548;SDS011;35450;44.518;7.466;2022-07-06T05:33:56;7.15;;;1.63;;
49548;SDS011;35450;44.518;7.466;2022-07-06T05:37:00;6.55;;;2.20;;
49548;SDS011;35450;44.518;7.466;2022-07-06T05:40:05;3.60;;;2.03;;
49548;SDS011;35450;44.518;7.466;2022-07-06T05:43:09;5.50;;;2.20;;
49548;SDS011;35450;44.518;7.466;2022-07-06T05:46:14;5.60;;;2.47;;
49548;SDS011;35450;44.518;7.466;2022-07-06T05:49:18;6.80;;;2.72;;
49548;SDS011;35450;44.518;7.466;2022-07-06T05:52:41;7.07;;;3.08;;
49548;SDS011;35450;44.518;7.466;2022-07-06T05:55:49;6.07;;;2.80;;
49548;SDS011;35450;44.518;7.466;2022-07-06T05:58:54;9.82;;;2.83;;
49548;SDS011;35450;44.518;7.466;2022-07-06T06:01:58;7.40;;;2.38;;
49548;SDS011;35450;44.518;7.466;2022-07-06T06:05:03;8.57;;;2.95;;
49548;SDS011;35450;44.518;7.466;2022-07-06T06:08:08;9.38;;;2.75;;
49548;SDS011;35450;44.518;7.466;2022-07-06T06:11:12;10.70;;;2.08;;
49548;SDS011;35450;44.518;7.466;2022-07-06T06:14:18;3.70;;;1.85;;
49548;SDS011;35450;44.518;7.466;2022-07-06T06:17:22;9.80;;;2.47;;
49548;SDS011;35450;44.518;7.466;2022-07-06T06:20:26;6.93;;;2.28;;
49548;SDS011;35450;44.518;7.466;2022-07-06T06:23:30;8.10;;;2.20;;
49548;SDS011;35450;44.518;7.466;2022-07-06T06:26:34;10.38;;;3.15;;
49548;SDS011;35450;44.518;7.466;2022-07-06T06:29:38;9.05;;;3.42;;
49548;SDS011;35450;44.518;7.466;2022-07-06T06:32:45;7.43;;;3.20;;
49548;SDS011;35450;44.518;7.466;2022-07-06T06:35:50;8.38;;;3.00;;
49548;SDS011;35450;44.518;7.466;2022-07-06T06:38:55;4.35;;;2.55;;
49548;SDS011;35450;44.518;7.466;2022-07-06T06:41:59;9.32;;;2.70;;
49548;SDS011;35450;44.518;7.466;2022-07-06T06:45:09;7.45;;;2.83;;
49548;SDS011;35450;44.518;7.466;2022-07-06T06:48:13;7.75;;;2.50;;
49548;SDS011;35450;44.518;7.466;2022-07-06T06:51:17;5.28;;;2.47;;
49548;SDS011;35450;44.518;7.466;2022-07-06T06:54:21;8.25;;;2.53;;
49548;SDS011;35450;44.518;7.466;2022-07-06T06:57:25;9.85;;;2.55;;
49548;SDS011;35450;44.518;7.466;2022-07-06T07:00:29;9.98;;;2.35;;
49548;SDS011;35450;44.518;7.466;2022-07-06T07:03:33;6.45;;;2.65;;
49548;SDS011;35450;44.518;7.466;2022-07-06T07:06:37;6.05;;;2.60;;
49548;SDS011;35450;44.518;7.466;2022-07-06T07:09:41;5.65;;;2.50;;
49548;SDS011;35450;44.518;7.466;2022-07-06T07:12:46;11.05;;;2.45;;
49548;SDS011;35450;44.518;7.466;2022-07-06T07:15:51;5.70;;;2.08;;
49548;SDS011;35450;44.518;7.466;2022-07-06T07:18:55;6.25;;;2.17;;
49548;SDS011;35450;44.518;7.466;2022-07-06T07:21:59;7.22;;;2.42;;
49548;SDS011;35450;44.518;7.466;2022-07-06T07:25:04;6.93;;;2.17;;
49548;SDS011;35450;44.518;7.466;2022-07-06T07:28:08;6.95;;;2.20;;
49548;SDS011;35450;44.518;7.466;2022-07-06T07:31:12;8.95;;;2.47;;
49548;SDS011;35450;44.518;7.466;2022-07-06T07:34:20;9.15;;;2.17;;
49548;SDS011;35450;44.518;7.466;2022-07-06T07:37:24;8.30;;;2.50;;
49548;SDS011;35450;44.518;7.466;2022-07-06T07:40:28;4.60;;;2.20;;
49548;SDS011;35450;44.518;7.466;2022-07-06T07:43:33;7.10;;;1.70;;
49548;SDS011;35450;44.518;7.466;2022-07-06T07:46:37;6.00;;;2.00;;
49548;SDS011;35450;44.518;7.466;2022-07-06T07:49:41;3.78;;;1.98;;
49548;SDS011;35450;44.518;7.466;2022-07-06T07:52:45;11.85;;;2.78;;
49548;SDS011;35450;44.518;7.466;2022-07-06T07:55:50;7.55;;;2.47;;
49548;SDS011;35450;44.518;7.466;2022-07-06T07:58:54;4.30;;;1.80;;
49548;SDS011;35450;44.518;7.466;2022-07-06T08:02:03;4.72;;;1.88;;
49548;SDS011;35450;44.518;7.466;2022-07-06T08:05:07;9.88;;;1.92;;
49548;SDS011;35450;44.518;7.466;2022-07-06T08:08:11;5.28;;;1.85;;
49548;SDS011;35450;44.518;7.466;2022-07-06T08:11:15;5.95;;;1.77;;
49548;SDS011;35450;44.518;7.466;2022-07-06T08:14:20;4.25;;;1.75;;
49548;SDS011;35450;44.518;7.466;2022-07-06T08:17:24;5.20;;;1.75;;
49548;SDS011;35450;44.518;7.466;2022-07-06T08:20:28;4.25;;;1.88;;
49548;SDS011;35450;44.518;7.466;2022-07-06T08:23:32;5.15;;;1.92;;
49548;SDS011;35450;44.518;7.466;2022-07-06T08:26:38;7.80;;;1.60;;
49548;SDS011;35450;44.518;7.466;2022-07-06T08:29:42;4.95;;;1.65;;
49548;SDS011;35450;44.518;7.466;2022-07-06T08:32:46;4.28;;;1.73;;
49548;SDS011;35450;44.518;7.466;2022-07-06T08:35:51;5.63;;;2.10;;
49548;SDS011;35450;44.518;7.466;2022-07-06T08:38:55;5.28;;;1.70;;
49548;SDS011;35450;44.518;7.466;2022-07-06T08:41:59;6.95;;;1.90;;
49548;SDS011;35450;44.518;7.466;2022-07-06T08:45:05;13.65;;;3.42;;
49548;SDS011;35450;44.518;7.466;2022-07-06T08:48:11;7.03;;;3.42;;
49548;SDS011;35450;44.518;7.466;2022-07-06T08:51:15;7.60;;;2.95;;
49548;SDS011;35450;44.518;7.466;2022-07-06T08:54:20;12.43;;;3.88;;
49548;SDS011;35450;44.518;7.466;2022-07-06T08:57:26;4.25;;;2.58;;
49548;SDS011;35450;44.518;7.466;2022-07-06T09:00:30;10.43;;;3.58;;
49548;SDS011;35450;44.518;7.466;2022-07-06T09:03:36;8.98;;;2.97;;
49548;SDS011;35450;44.518;7.466;2022-07-06T09:06:42;9.95;;;2.72;;
49548;SDS011;35450;44.518;7.466;2022-07-06T09:09:48;2.75;;;1.77;;
49548;SDS011;35450;44.518;7.466;2022-07-06T09:13:01;6.00;;;2.67;;
49548;SDS011;35450;44.518;7.466;2022-07-06T09:16:10;6.13;;;2.63;;
49548;SDS011;35450;44.518;7.466;2022-07-06T09:19:15;7.38;;;2.75;;
49548;SDS011;35450;44.518;7.466;2022-07-06T09:22:30;4.20;;;1.95;;
49548;SDS011;35450;44.518;7.466;2022-07-06T09:25:35;4.15;;;2.70;;
49548;SDS011;35450;44.518;7.466;2022-07-06T09:28:40;8.63;;;2.33;;
49548;SDS011;35450;44.518;7.466;2022-07-06T09:35:02;7.80;;;2.17;;
49548;SDS011;35450;44.518;7.466;2022-07-06T09:38:10;7.60;;;2.20;;
49548;SDS011;35450;44.518;7.466;2022-07-06T09:41:29;4.93;;;2.28;;
49548;SDS011;35450;44.518;7.466;2022-07-06T09:44:39;9.77;;;3.28;;
49548;SDS011;35450;44.518;7.466;2022-07-06T09:47:47;11.38;;;2.80;;
49548;SDS011;35450;44.518;7.466;2022-07-06T09:50:52;7.88;;;2.60;;
49548;SDS011;35450;44.518;7.466;2022-07-06T09:54:06;3.72;;;2.20;;
49548;SDS011;35450;44.518;7.466;2022-07-06T09:57:13;13.40;;;2.85;;
49548;SDS011;35450;44.518;7.466;2022-07-06T10:00:18;4.95;;;2.20;;
49548;SDS011;35450;44.518;7.466;2022-07-06T10:03:22;8.73;;;2.40;;
49548;SDS011;35450;44.518;7.466;2022-07-06T10:06:28;4.03;;;2.00;;
49548;SDS011;35450;44.518;7.466;2022-07-06T10:09:31;4.28;;;2.28;;
49548;SDS011;35450;44.518;7.466;2022-07-06T10:12:39;5.13;;;2.83;;
49548;SDS011;35450;44.518;7.466;2022-07-06T10:15:45;13.23;;;2.72;;
49548;SDS011;35450;44.518;7.466;2022-07-06T10:18:53;9.50;;;2.13;;
49548;SDS011;35450;44.518;7.466;2022-07-06T10:21:58;5.10;;;2.30;;
49548;SDS011;35450;44.518;7.466;2022-07-06T10:25:04;5.63;;;2.38;;
49548;SDS011;35450;44.518;7.466;2022-07-06T10:28:09;3.75;;;2.28;;
49548;SDS011;35450;44.518;7.466;2022-07-06T10:31:17;3.20;;;2.10;;
49548;SDS011;35450;44.518;7.466;2022-07-06T10:34:22;6.43;;;1.77;;
49548;SDS011;35450;44.518;7.466;2022-07-06T10:37:27;4.35;;;2.25;;
49548;SDS011;35450;44.518;7.466;2022-07-06T10:40:35;7.45;;;2.40;;
49548;SDS011;35450;44.518;7.466;2022-07-06T10:44:14;7.10;;;2.15;;
49548;SDS011;35450;44.518;7.466;2022-07-06T10:47:24;5.32;;;2.47;;
49548;SDS011;35450;44.518;7.466;2022-07-06T10:50:34;7.93;;;2.50;;
49548;SDS011;35450;44.518;7.466;2022-07-06T10:53:39;4.60;;;2.60;;
49548;SDS011;35450;44.518;7.466;2022-07-06T10:56:48;10.30;;;3.13;;
49548;SDS011;35450;44.518;7.466;2022-07-06T11:00:00;8.50;;;2.45;;
49548;SDS011;35450;44.518;7.466;2022-07-06T11:07:06;4.75;;;1.77;;
49548;SDS011;35450;44.518;7.466;2022-07-06T11:10:12;4.20;;;1.80;;
49548;SDS011;35450;44.518;7.466;2022-07-06T11:13:26;7.47;;;2.22;;
49548;SDS011;35450;44.518;7.466;2022-07-06T11:16:32;4.13;;;1.55;;
49548;SDS011;35450;44.518;7.466;2022-07-06T11:19:56;3.65;;;2.13;;
49548;SDS011;35450;44.518;7.466;2022-07-06T11:23:01;5.72;;;2.10;;
49548;SDS011;35450;44.518;7.466;2022-07-06T11:26:05;9.65;;;2.25;;
49548;SDS011;35450;44.518;7.466;2022-07-06T11:29:09;8.40;;;2.75;;
49548;SDS011;35450;44.518;7.466;2022-07-06T11:32:14;9.43;;;2.08;;
49548;SDS011;35450;44.518;7.466;2022-07-06T11:35:21;6.00;;;2.42;;
49548;SDS011;35450;44.518;7.466;2022-07-06T11:38:26;7.32;;;2.45;;
49548;SDS011;35450;44.518;7.466;2022-07-06T11:41:30;6.35;;;2.30;;
49548;SDS011;35450;44.518;7.466;2022-07-06T11:44:35;6.53;;;2.67;;
49548;SDS011;35450;44.518;7.466;2022-07-06T11:47:40;6.25;;;2.15;;
49548;SDS011;35450;44.518;7.466;2022-07-06T11:50:56;5.68;;;1.70;;
49548;SDS011;35450;44.518;7.466;2022-07-06T11:54:09;5.63;;;2.30;;
49548;SDS011;35450;44.518;7.466;2022-07-06T11:57:20;9.60;;;2.00;;
49548;SDS011;35450;44.518;7.466;2022-07-06T12:00:25;34.33;;;3.45;;
49548;SDS011;35450;44.518;7.466;2022-07-06T12:03:30;6.28;;;2.03;;
49548;SDS011;35450;44.518;7.466;2022-07-06T12:06:36;26.60;;;2.65;;
49548;SDS011;35450;44.518;7.466;2022-07-06T12:09:41;7.93;;;2.05;;
49548;SDS011;35450;44.518;7.466;2022-07-06T12:12:46;10.18;;;2.72;;
49548;SDS011;35450;44.518;7.466;2022-07-06T12:15:50;9.57;;;2.15;;
49548;SDS011;35450;44.518;7.466;2022-07-06T12:18:54;3.58;;;1.80;;
49548;SDS011;35450;44.518;7.466;2022-07-06T12:21:58;5.03;;;2.05;;
49548;SDS011;35450;44.518;7.466;2022-07-06T12:25:04;3.08;;;2.05;;
49548;SDS011;35450;44.518;7.466;2022-07-06T12:28:21;3.97;;;2.10;;
49548;SDS011;35450;44.518;7.466;2022-07-06T12:31:36;5.78;;;1.90;;
49548;SDS011;35450;44.518;7.466;2022-07-06T12:34:41;5.53;;;1.90;;
49548;SDS011;35450;44.518;7.466;2022-07-06T12:37:55;4.22;;;1.80;;
49548;SDS011;35450;44.518;7.466;2022-07-06T12:41:03;6.28;;;2.80;;
49548;SDS011;35450;44.518;7.466;2022-07-06T12:44:09;5.30;;;1.58;;
49548;SDS011;35450;44.518;7.466;2022-07-06T12:47:16;8.10;;;2.55;;
49548;SDS011;35450;44.518;7.466;2022-07-06T12:50:29;5.88;;;2.15;;
49548;SDS011;35450;44.518;7.466;2022-07-06T12:53:41;4.80;;;1.70;;
49548;SDS011;35450;44.518;7.466;2022-07-06T13:00:07;4.82;;;1.63;;
49548;SDS011;35450;44.518;7.466;2022-07-06T13:03:11;2.45;;;1.42;;
49548;SDS011;35450;44.518;7.466;2022-07-06T13:06:25;7.45;;;1.67;;
49548;SDS011;35450;44.518;7.466;2022-07-06T13:09:37;11.80;;;1.75;;
49548;SDS011;35450;44.518;7.466;2022-07-06T13:12:41;8.32;;;1.80;;
49548;SDS011;35450;44.518;7.466;2022-07-06T13:15:45;5.43;;;1.70;;
49548;SDS011;35450;44.518;7.466;2022-07-06T13:18:49;5.45;;;1.65;;
49548;SDS011;35450;44.518;7.466;2022-07-06T13:21:53;13.38;;;2.10;;
49548;SDS011;35450;44.518;7.466;2022-07-06T13:24:58;20.95;;;2.40;;
49548;SDS011;35450;44.518;7.466;2022-07-06T13:28:02;16.17;;;2.33;;
49548;SDS011;35450;44.518;7.466;2022-07-06T13:31:06;5.43;;;1.88;;
49548;SDS011;35450;44.518;7.466;2022-07-06T13:34:10;3.92;;;1.83;;
49548;SDS011;35450;44.518;7.466;2022-07-06T13:37:16;5.13;;;2.25;;
49548;SDS011;35450;44.518;7.466;2022-07-06T13:40:22;4.70;;;1.60;;
49548;SDS011;35450;44.518;7.466;2022-07-06T13:43:26;20.30;;;2.20;;
49548;SDS011;35450;44.518;7.466;2022-07-06T13:46:39;8.25;;;1.83;;
49548;SDS011;35450;44.518;7.466;2022-07-06T13:49:43;19.52;;;2.30;;
49548;SDS011;35450;44.518;7.466;2022-07-06T13:52:51;13.20;;;2.05;;
49548;SDS011;35450;44.518;7.466;2022-07-06T13:55:55;9.88;;;2.10;;
49548;SDS011;35450;44.518;7.466;2022-07-06T13:58:59;10.05;;;2.25;;
49548;SDS011;35450;44.518;7.466;2022-07-06T14:02:03;3.90;;;1.90;;
49548;SDS011;35450;44.518;7.466;2022-07-06T14:05:07;6.78;;;2.22;;
49548;SDS011;35450;44.518;7.466;2022-07-06T14:08:11;2.60;;;1.48;;
49548;SDS011;35450;44.518;7.466;2022-07-06T14:11:16;2.95;;;2.10;;
49548;SDS011;35450;44.518;7.466;2022-07-06T14:14:20;63.65;;;4.40;;
49548;SDS011;35450;44.518;7.466;2022-07-06T14:17:25;14.75;;;2.28;;
49548;SDS011;35450;44.518;7.466;2022-07-06T14:20:29;16.40;;;1.90;;
49548;SDS011;35450;44.518;7.466;2022-07-06T14:23:33;4.57;;;1.83;;
49548;SDS011;35450;44.518;7.466;2022-07-06T14:26:37;6.20;;;1.80;;
49548;SDS011;35450;44.518;7.466;2022-07-06T14:29:41;5.45;;;1.83;;
49548;SDS011;35450;44.518;7.466;2022-07-06T14:32:45;5.50;;;1.58;;
49548;SDS011;35450;44.518;7.466;2022-07-06T14:35:50;3.65;;;1.50;;
49548;SDS011;35450;44.518;7.466;2022-07-06T14:38:54;4.70;;;2.00;;
49548;SDS011;35450;44.518;7.466;2022-07-06T14:41:58;7.15;;;1.77;;
49548;SDS011;35450;44.518;7.466;2022-07-06T14:45:02;7.05;;;1.83;;
49548;SDS011;35450;44.518;7.466;2022-07-06T14:48:07;4.82;;;1.50;;
49548;SDS011;35450;44.518;7.466;2022-07-06T14:51:12;9.90;;;1.98;;
49548;SDS011;35450;44.518;7.466;2022-07-06T14:54:16;5.22;;;1.80;;
49548;SDS011;35450;44.518;7.466;2022-07-06T14:57:20;7.80;;;2.40;;
49548;SDS011;35450;44.518;7.466;2022-07-06T15:00:24;5.03;;;2.35;;
49548;SDS011;35450;44.518;7.466;2022-07-06T15:03:28;15.73;;;2.22;;
49548;SDS011;35450;44.518;7.466;2022-07-06T15:06:32;12.77;;;2.38;;
49548;SDS011;35450;44.518;7.466;2022-07-06T15:09:36;7.80;;;2.17;;
49548;SDS011;35450;44.518;7.466;2022-07-06T15:12:40;5.40;;;2.00;;
49548;SDS011;35450;44.518;7.466;2022-07-06T15:15:46;3.35;;;2.35;;
49548;SDS011;35450;44.518;7.466;2022-07-06T15:18:51;5.63;;;2.60;;
49548;SDS011;35450;44.518;7.466;2022-07-06T15:21:55;5.03;;;1.73;;
49548;SDS011;35450;44.518;7.466;2022-07-06T15:24:59;5.28;;;2.50;;
49548;SDS011;35450;44.518;7.466;2022-07-06T15:28:03;10.77;;;2.00;;
49548;SDS011;35450;44.518;7.466;2022-07-06T15:31:07;3.42;;;2.20;;
49548;SDS011;35450;44.518;7.466;2022-07-06T15:34:11;5.32;;;2.20;;
49548;SDS011;35450;44.518;7.466;2022-07-06T15:37:16;5.32;;;2.13;;
49548;SDS011;35450;44.518;7.466;2022-07-06T15:40:23;3.78;;;2.33;;
49548;SDS011;35450;44.518;7.466;2022-07-06T15:43:41;8.15;;;2.40;;
49548;SDS011;35450;44.518;7.466;2022-07-06T15:46:44;5.25;;;2.40;;
49548;SDS011;35450;44.518;7.466;2022-07-06T15:49:52;2.10;;;1.55;;
49548;SDS011;35450;44.518;7.466;2022-07-06T15:52:56;13.02;;;2.53;;
49548;SDS011;35450;44.518;7.466;2022-07-06T15:56:00;7.13;;;1.90;;
49548;SDS011;35450;44.518;7.466;2022-07-06T15:59:05;5.50;;;1.48;;
49548;SDS011;35450;44.518;7.466;2022-07-06T16:02:10;4.95;;;1.90;;
49548;SDS011;35450;44.518;7.466;2022-07-06T16:05:14;18.65;;;3.47;;
49548;SDS011;35450;44.518;7.466;2022-07-06T16:08:18;6.13;;;1.98;;
49548;SDS011;35450;44.518;7.466;2022-07-06T16:11:22;7.03;;;2.17;;
49548;SDS011;35450;44.518;7.466;2022-07-06T16:14:26;4.32;;;1.77;;
49548;SDS011;35450;44.518;7.466;2022-07-06T16:17:30;4.25;;;2.40;;
49548;SDS011;35450;44.518;7.466;2022-07-06T16:20:34;6.75;;;1.77;;
49548;SDS011;35450;44.518;7.466;2022-07-06T16:23:38;5.47;;;1.60;;
49548;SDS011;35450;44.518;7.466;2022-07-06T16:26:44;7.95;;;2.08;;
49548;SDS011;35450;44.518;7.466;2022-07-06T16:29:48;4.75;;;2.10;;
49548;SDS011;35450;44.518;7.466;2022-07-06T16:32:53;4.38;;;2.22;;
49548;SDS011;35450;44.518;7.466;2022-07-06T16:35:57;8.77;;;2.28;;
49548;SDS011;35450;44.518;7.466;2022-07-06T16:39:01;9.02;;;1.90;;
49548;SDS011;35450;44.518;7.466;2022-07-06T16:42:09;8.23;;;2.00;;
49548;SDS011;35450;44.518;7.466;2022-07-06T16:45:15;7.22;;;2.63;;
49548;SDS011;35450;44.518;7.466;2022-07-06T16:48:19;9.15;;;3.13;;
49548;SDS011;35450;44.518;7.466;2022-07-06T16:51:23;7.97;;;5.90;;
49548;SDS011;35450;44.518;7.466;2022-07-06T16:54:27;12.63;;;3.58;;
49548;SDS011;35450;44.518;7.466;2022-07-06T16:57:32;9.40;;;3.60;;
49548;SDS011;35450;44.518;7.466;2022-07-06T17:00:36;14.13;;;2.47;;
49548;SDS011;35450;44.518;7.466;2022-07-06T17:03:40;3.05;;;2.03;;
49548;SDS011;35450;44.518;7.466;2022-07-06T17:06:44;6.35;;;2.10;;
49548;SDS011;35450;44.518;7.466;2022-07-06T17:09:48;13.13;;;3.05;;
49548;SDS011;35450;44.518;7.466;2022-07-06T17:12:52;7.75;;;1.80;;
49548;SDS011;35450;44.518;7.466;2022-07-06T17:15:56;5.22;;;1.92;;
49548;SDS011;35450;44.518;7.466;2022-07-06T17:19:00;5.75;;;2.00;;
49548;SDS011;35450;44.518;7.466;2022-07-06T17:22:04;3.03;;;2.08;;
49548;SDS011;35450;44.518;7.466;2022-07-06T17:25:08;2.58;;;1.70;;
49548;SDS011;35450;44.518;7.466;2022-07-06T17:28:13;4.90;;;2.00;;
49548;SDS011;35450;44.518;7.466;2022-07-06T17:31:18;10.38;;;2.55;;
49548;SDS011;35450;44.518;7.466;2022-07-06T17:34:22;10.77;;;1.80;;
49548;SDS011;35450;44.518;7.466;2022-07-06T17:37:26;5.28;;;1.90;;
49548;SDS011;35450;44.518;7.466;2022-07-06T17:40:30;4.10;;;2.15;;
49548;SDS011;35450;44.518;7.466;2022-07-06T17:43:34;5.75;;;2.30;;
49548;SDS011;35450;44.518;7.466;2022-07-06T17:46:39;11.25;;;1.92;;
49548;SDS011;35450;44.518;7.466;2022-07-06T17:49:43;4.90;;;2.22;;
49548;SDS011;35450;44.518;7.466;2022-07-06T17:52:47;11.55;;;2.22;;
49548;SDS011;35450;44.518;7.466;2022-07-06T17:55:51;5.25;;;2.00;;
49548;SDS011;35450;44.518;7.466;2022-07-06T17:58:56;2.28;;;1.77;;
49548;SDS011;35450;44.518;7.466;2022-07-06T18:02:02;5.90;;;2.95;;
49548;SDS011;35450;44.518;7.466;2022-07-06T18:05:06;7.60;;;2.47;;
49548;SDS011;35450;44.518;7.466;2022-07-06T18:08:10;10.95;;;2.65;;
49548;SDS011;35450;44.518;7.466;2022-07-06T18:11:14;20.77;;;2.67;;
49548;SDS011;35450;44.518;7.466;2022-07-06T18:14:19;5.50;;;2.60;;
49548;SDS011;35450;44.518;7.466;2022-07-06T18:17:23;11.43;;;2.10;;
49548;SDS011;35450;44.518;7.466;2022-07-06T18:20:28;2.92;;;2.22;;
49548;SDS011;35450;44.518;7.466;2022-07-06T18:23:32;6.90;;;2.53;;
49548;SDS011;35450;44.518;7.466;2022-07-06T18:26:36;10.13;;;2.60;;
49548;SDS011;35450;44.518;7.466;2022-07-06T18:29:40;8.55;;;2.08;;
49548;SDS011;35450;44.518;7.466;2022-07-06T18:32:44;8.18;;;2.22;;
49548;SDS011;35450;44.518;7.466;2022-07-06T18:35:50;7.22;;;2.30;;
49548;SDS011;35450;44.518;7.466;2022-07-06T18:38:54;8.95;;;2.78;;
49548;SDS011;35450;44.518;7.466;2022-07-06T18:41:59;3.00;;;2.10;;
49548;SDS011;35450;44.518;7.466;2022-07-06T18:45:04;3.40;;;2.05;;